Time;durP1;ratioP1;P1;durP2;ratioP2;P2;SDS_P1;SDS_P2;PMS_P1;PMS_P2;Temp;Humidity;BMP_temperature;BMP_pressure;BME280_temperature;BME280_humidity;BME280_pressure;Samples;Min_cycle;Max_cycle;Signal;HPM_P1;HPM_P2
2023/06/23 00:01:18;;;;;;;72.85;64.75;;;16.90;88.60;;;;;;4980368;28;20038;-74
2023/06/23 00:03:45;;;;;;;71.20;62.78;;;16.90;88.60;;;;;;4977769;28;20112;-74
2023/06/23 00:06:11;;;;;;;71.22;62.67;;;16.90;88.60;;;;;;4976637;28;20034;-74
2023/06/23 00:08:39;;;;;;;72.15;64.32;;;16.90;88.70;;;;;;4979121;28;20042;-73
2023/06/23 00:11:06;;;;;;;75.30;66.95;;;16.90;88.70;;;;;;4980644;28;20030;-73
2023/06/23 00:13:34;;;;;;;71.28;63.47;;;16.80;88.70;;;;;;4980113;28;20077;-74
2023/06/23 00:16:01;;;;;;;75.22;65.13;;;16.80;88.80;;;;;;4980935;28;20533;-74
2023/06/23 00:18:26;;;;;;;80.22;68.90;;;16.80;88.80;;;;;;4987299;28;20041;-74
2023/06/23 00:20:54;;;;;;;81.25;71.78;;;16.80;88.70;;;;;;4974715;28;20031;-73
2023/06/23 00:23:20;;;;;;;77.80;68.75;;;16.80;88.90;;;;;;4973534;28;20049;-73
2023/06/23 00:25:46;;;;;;;73.63;65.65;;;16.70;89.00;;;;;;4970076;28;20475;-73
2023/06/23 00:28:11;;;;;;;82.43;72.47;;;16.70;89.00;;;;;;4970950;28;20112;-74
2023/06/23 00:30:37;;;;;;;83.10;72.10;;;16.80;89.10;;;;;;4979393;28;20620;-74
2023/06/23 00:33:03;;;;;;;82.53;71.15;;;16.70;89.30;;;;;;4977403;28;20047;-74
2023/06/23 00:35:28;;;;;;;81.38;70.70;;;16.70;89.30;;;;;;4980681;28;20042;-73
2023/06/23 00:37:54;;;;;;;88.00;73.07;;;16.70;89.30;;;;;;4982910;28;20574;-73
2023/06/23 00:40:22;;;;;;;91.60;76.28;;;16.60;89.40;;;;;;4981543;28;20026;-73
2023/06/23 00:42:54;;;;;;;82.25;73.03;;;16.60;89.50;;;;;;4979103;28;20061;-73
2023/06/23 00:45:21;;;;;;;87.28;76.20;;;16.60;89.60;;;;;;4974945;28;20054;-73
2023/06/23 00:47:47;;;;;;;87.80;74.50;;;16.60;89.70;;;;;;4982091;28;20026;-73
2023/06/23 00:50:16;;;;;;;88.47;75.10;;;16.60;89.70;;;;;;4976088;28;20073;-73
2023/06/23 00:52:49;;;;;;;89.45;75.22;;;16.60;89.70;;;;;;4975493;28;20039;-73
2023/06/23 00:55:20;;;;;;;90.82;78.30;;;16.60;89.80;;;;;;4979505;28;20042;-73
2023/06/23 00:57:46;;;;;;;90.63;77.70;;;16.50;89.90;;;;;;4977589;28;20153;-74
2023/06/23 01:00:17;;;;;;;95.93;79.85;;;16.50;90.00;;;;;;4973960;28;20081;-73
2023/06/23 01:02:42;;;;;;;91.13;79.47;;;16.50;90.00;;;;;;4976721;28;20030;-73
2023/06/23 01:05:09;;;;;;;96.32;80.13;;;16.50;90.10;;;;;;4983844;28;20125;-73
2023/06/23 01:07:59;;;;;;;100.35;83.60;;;16.50;90.10;;;;;;4976610;28;20121;-73
2023/06/23 01:10:30;;;;;;;106.93;86.85;;;16.40;90.30;;;;;;4974027;28;20027;-73
2023/06/23 01:13:10;;;;;;;99.57;82.40;;;16.40;90.50;;;;;;4974642;28;20358;-73
2023/06/23 01:15:41;;;;;;;105.00;85.53;;;16.40;90.70;;;;;;4974673;28;20042;-73
2023/06/23 01:18:16;;;;;;;101.85;86.03;;;16.30;90.70;;;;;;4975418;28;20077;-73
2023/06/23 01:20:46;;;;;;;106.18;89.25;;;16.30;90.80;;;;;;4976616;28;20603;-73
2023/06/23 01:23:20;;;;;;;109.22;89.47;;;16.30;90.80;;;;;;4981492;28;20069;-73
2023/06/23 01:25:58;;;;;;;105.38;87.95;;;16.30;90.90;;;;;;4984988;28;20036;-73
2023/06/23 01:28:47;;;;;;;126.20;97.82;;;16.30;90.90;;;;;;4968888;28;20042;-73
2023/06/23 01:31:24;;;;;;;118.18;95.63;;;16.20;90.90;;;;;;4982759;28;20037;-73
2023/06/23 01:33:57;;;;;;;116.88;94.03;;;16.20;91.00;;;;;;4987759;28;20125;-73
2023/06/23 01:36:41;;;;;;;113.65;92.32;;;16.20;91.10;;;;;;4983099;28;20378;-74
2023/06/23 01:39:11;;;;;;;114.90;94.13;;;16.30;91.10;;;;;;4993838;28;20124;-74
2023/06/23 01:42:03;;;;;;;116.63;96.82;;;16.20;91.10;;;;;;4990329;28;20030;-74
2023/06/23 01:44:31;;;;;;;121.55;97.35;;;16.20;91.10;;;;;;4980311;28;20050;-74
2023/06/23 01:47:02;;;;;;;116.50;93.68;;;16.20;91.00;;;;;;4996649;28;20486;-74
2023/06/23 01:49:36;;;;;;;119.57;92.68;;;16.20;91.10;;;;;;5001466;28;20069;-74
2023/06/23 01:52:04;;;;;;;115.13;95.07;;;16.20;91.10;;;;;;4976196;28;20555;-73
2023/06/23 01:54:31;;;;;;;113.45;91.78;;;16.10;91.10;;;;;;4994353;28;20117;-73
2023/06/23 01:56:58;;;;;;;108.53;92.88;;;16.10;91.00;;;;;;4992957;28;20030;-73
2023/06/23 01:59:24;;;;;;;114.28;93.90;;;16.10;91.00;;;;;;4988582;28;20033;-74
2023/06/23 02:01:52;;;;;;;118.35;96.85;;;16.10;91.00;;;;;;4992114;28;20046;-74
2023/06/23 02:04:19;;;;;;;119.63;96.75;;;16.10;91.00;;;;;;4991969;28;20109;-74
2023/06/23 02:06:47;;;;;;;108.43;93.63;;;16.10;91.00;;;;;;4992876;28;20038;-74
2023/06/23 02:09:34;;;;;;;112.97;92.53;;;16.10;91.10;;;;;;4994016;28;20454;-73
2023/06/23 02:12:03;;;;;;;113.63;95.40;;;16.10;91.10;;;;;;4991811;28;20049;-73
2023/06/23 02:14:30;;;;;;;121.32;99.22;;;16.10;91.20;;;;;;4981814;28;20073;-73
2023/06/23 02:16:57;;;;;;;118.13;94.65;;;16.10;91.20;;;;;;4994214;28;20068;-74
2023/06/23 02:19:24;;;;;;;116.80;96.75;;;16.10;91.30;;;;;;4992872;28;20056;-74
2023/06/23 02:21:51;;;;;;;122.18;101.13;;;16.10;91.40;;;;;;5000406;28;20044;-74
2023/06/23 02:24:18;;;;;;;117.03;95.55;;;16.10;91.50;;;;;;4991666;28;20018;-74
2023/06/23 02:26:47;;;;;;;112.28;91.72;;;16.10;91.40;;;;;;4992419;28;20030;-73
2023/06/23 02:29:13;;;;;;;111.97;93.10;;;16.10;91.40;;;;;;4998201;28;20041;-74
2023/06/23 02:31:39;;;;;;;116.93;95.32;;;16.10;91.50;;;;;;4996898;28;20034;-74
2023/06/23 02:34:05;;;;;;;119.35;99.43;;;16.10;91.50;;;;;;4987782;28;20098;-74
2023/06/23 02:36:37;;;;;;;121.78;98.68;;;16.00;91.40;;;;;;4982795;28;20112;-74
2023/06/23 02:39:05;;;;;;;111.82;95.05;;;16.00;91.40;;;;;;4983934;28;20054;-74
2023/06/23 02:41:35;;;;;;;122.32;98.35;;;16.00;91.50;;;;;;4990253;28;20109;-74
2023/06/23 02:44:06;;;;;;;114.65;95.03;;;16.00;91.50;;;;;;4985586;28;20103;-74
2023/06/23 02:46:38;;;;;;;114.22;94.50;;;16.00;91.60;;;;;;4993037;28;20370;-74
2023/06/23 02:49:10;;;;;;;115.38;93.82;;;15.90;91.50;;;;;;4990066;28;20018;-74
2023/06/23 02:51:37;;;;;;;114.05;95.68;;;15.90;91.60;;;;;;4995158;28;20092;-74
2023/06/23 02:54:07;;;;;;;110.75;92.93;;;15.90;91.50;;;;;;4982542;28;20022;-73
2023/06/23 02:56:40;;;;;;;113.82;92.95;;;15.90;91.40;;;;;;4984635;28;20114;-73
2023/06/23 02:59:09;;;;;;;116.03;95.07;;;15.90;91.40;;;;;;4994832;28;20026;-73
2023/06/23 03:01:38;;;;;;;112.15;94.25;;;15.90;91.40;;;;;;4982521;28;20430;-73
2023/06/23 03:04:04;;;;;;;110.70;91.90;;;15.90;91.40;;;;;;4992025;28;20022;-73
2023/06/23 03:06:34;;;;;;;114.30;95.78;;;15.80;91.20;;;;;;4992854;28;20049;-73
2023/06/23 03:09:02;;;;;;;106.22;89.20;;;15.90;91.20;;;;;;4993676;28;20340;-74
2023/06/23 03:11:29;;;;;;;107.30;90.38;;;15.90;91.20;;;;;;4984521;28;20035;-73
2023/06/23 03:13:54;;;;;;;106.70;89.90;;;15.80;91.10;;;;;;4995499;28;20049;-74
2023/06/23 03:16:46;;;;;;;100.78;86.93;;;15.80;90.90;;;;;;4989365;28;20046;-74
2023/06/23 03:19:19;;;;;;;105.85;89.50;;;15.80;90.80;;;;;;4983040;28;20076;-74
2023/06/23 03:21:52;;;;;;;99.38;84.13;;;15.80;90.80;;;;;;4991654;28;20481;-74
2023/06/23 03:24:22;;;;;;;108.55;89.82;;;15.80;90.60;;;;;;4984173;28;20080;-74
2023/06/23 03:26:49;;;;;;;98.95;84.82;;;15.80;90.50;;;;;;4983755;28;20022;-74
2023/06/23 03:29:18;;;;;;;101.82;87.20;;;15.70;90.50;;;;;;4976846;28;20305;-74
2023/06/23 03:31:46;;;;;;;97.20;83.40;;;15.70;90.40;;;;;;4989172;28;20042;-74
2023/06/23 03:34:15;;;;;;;96.80;83.95;;;15.70;90.30;;;;;;4988256;28;20030;-74
2023/06/23 03:36:42;;;;;;;96.15;82.38;;;15.70;90.30;;;;;;4988076;28;20140;-74
2023/06/23 03:39:18;;;;;;;97.10;85.20;;;15.70;89.90;;;;;;5001155;28;20177;-74
2023/06/23 03:41:45;;;;;;;97.50;82.05;;;15.60;89.80;;;;;;4990567;28;20089;-74
2023/06/23 03:44:22;;;;;;;101.78;87.07;;;15.60;89.60;;;;;;4984881;28;20022;-74
2023/06/23 03:46:55;;;;;;;97.25;84.57;;;15.60;89.70;;;;;;4989280;28;20646;-74
2023/06/23 03:49:27;;;;;;;92.73;81.13;;;15.70;89.70;;;;;;4986912;28;20473;-74
2023/06/23 03:51:56;;;;;;;96.82;82.45;;;15.70;89.70;;;;;;4990819;28;20037;-74
2023/06/23 03:54:24;;;;;;;102.38;87.15;;;15.70;89.70;;;;;;4984334;28;20198;-73
2023/06/23 03:56:51;;;;;;;95.88;81.88;;;15.80;89.70;;;;;;4988591;28;20048;-73
2023/06/23 03:59:19;;;;;;;96.15;82.78;;;15.80;89.60;;;;;;4988983;28;20030;-73
2023/06/23 04:01:47;;;;;;;98.03;82.88;;;15.80;89.60;;;;;;4985189;28;20058;-73
2023/06/23 04:04:14;;;;;;;90.75;79.75;;;15.90;89.20;;;;;;4979854;28;20018;-73
2023/06/23 04:06:42;;;;;;;92.70;78.88;;;15.90;89.00;;;;;;4982673;28;20648;-74
2023/06/23 04:09:09;;;;;;;91.55;77.53;;;16.00;88.90;;;;;;4986821;28;20274;-73
2023/06/23 04:11:37;;;;;;;91.25;79.75;;;16.00;88.80;;;;;;4981108;28;20042;-73
2023/06/23 04:14:04;;;;;;;96.97;83.85;;;16.10;88.80;;;;;;4989591;28;20047;-73
2023/06/23 04:16:34;;;;;;;94.75;81.28;;;16.10;88.60;;;;;;4986069;28;20073;-73
2023/06/23 04:19:02;;;;;;;90.70;78.55;;;16.20;88.50;;;;;;4997401;28;20026;-75
2023/06/23 04:21:29;;;;;;;89.43;77.97;;;16.30;88.30;;;;;;4987877;28;20106;-74
2023/06/23 04:23:56;;;;;;;88.95;79.15;;;16.30;88.20;;;;;;4988691;28;20135;-75
2023/06/23 04:26:23;;;;;;;89.50;78.20;;;16.40;87.90;;;;;;4988538;28;20588;-74
2023/06/23 04:28:51;;;;;;;85.93;75.03;;;16.50;87.60;;;;;;4995546;28;20035;-75
2023/06/23 04:31:21;;;;;;;87.60;77.93;;;16.60;87.20;;;;;;4980181;28;20038;-75
2023/06/23 04:33:47;;;;;;;84.40;74.88;;;16.60;87.00;;;;;;4986059;28;20441;-74
2023/06/23 04:36:20;;;;;;;84.18;74.75;;;16.60;86.50;;;;;;4993147;28;20073;-75
2023/06/23 04:38:54;;;;;;;94.55;84.35;;;16.60;86.50;;;;;;4989727;28;20459;-75
2023/06/23 04:41:24;;;;;;;91.15;81.22;;;16.70;86.40;;;;;;4992301;28;20387;-74
2023/06/23 04:43:52;;;;;;;83.80;74.80;;;16.90;86.50;;;;;;4977837;28;20141;-74
2023/06/23 04:46:31;;;;;;;84.93;75.75;;;17.00;86.20;;;;;;4979532;28;20042;-74
2023/06/23 04:49:01;;;;;;;85.60;75.57;;;17.10;85.90;;;;;;4981484;28;20027;-74
2023/06/23 04:51:31;;;;;;;80.45;71.72;;;17.10;85.70;;;;;;4977897;28;20031;-74
2023/06/23 04:54:03;;;;;;;87.57;78.07;;;17.20;85.80;;;;;;4978149;28;20121;-74
2023/06/23 04:56:33;;;;;;;88.82;78.25;;;17.40;85.70;;;;;;4981323;28;20046;-75
2023/06/23 04:59:03;;;;;;;85.20;76.07;;;17.50;85.70;;;;;;4976000;28;20054;-75
2023/06/23 05:01:30;;;;;;;83.97;74.68;;;17.60;85.60;;;;;;4976022;28;20047;-74
2023/06/23 05:04:00;;;;;;;92.90;82.63;;;17.70;85.50;;;;;;4984449;28;20034;-74
2023/06/23 05:06:27;;;;;;;93.35;83.15;;;17.80;85.10;;;;;;4980605;28;20038;-74
2023/06/23 05:08:54;;;;;;;90.25;80.65;;;18.00;85.20;;;;;;4983345;28;20033;-75
2023/06/23 05:11:21;;;;;;;87.30;77.80;;;18.80;84.50;;;;;;4980656;28;20741;-75
2023/06/23 05:13:48;;;;;;;86.93;77.90;;;19.70;81.40;;;;;;4981748;28;20070;-74
2023/06/23 05:16:15;;;;;;;81.00;72.28;;;20.60;78.50;;;;;;4982253;28;20060;-75
2023/06/23 05:18:43;;;;;;;69.68;62.40;;;21.10;75.90;;;;;;4977109;28;20448;-75
2023/06/23 05:21:11;;;;;;;71.93;64.57;;;21.90;74.10;;;;;;4973272;28;20038;-75
2023/06/23 05:23:40;;;;;;;72.53;65.03;;;22.50;71.40;;;;;;4976564;28;20031;-74
2023/06/23 05:26:07;;;;;;;65.95;59.25;;;23.00;68.30;;;;;;4976673;28;20027;-75
2023/06/23 05:28:36;;;;;;;66.43;59.38;;;23.30;67.90;;;;;;4975125;28;20053;-74
2023/06/23 05:31:04;;;;;;;73.43;65.82;;;23.50;66.70;;;;;;4983576;28;20367;-75
2023/06/23 05:33:33;;;;;;;70.95;63.65;;;23.80;63.80;;;;;;4974602;28;20027;-75
2023/06/23 05:36:01;;;;;;;65.60;59.08;;;24.00;63.90;;;;;;4976406;28;20378;-74
2023/06/23 05:38:28;;;;;;;74.10;66.53;;;24.20;63.20;;;;;;4975990;28;20181;-76
2023/06/23 05:40:54;;;;;;;68.03;61.42;;;23.90;64.20;;;;;;4980596;28;20105;-77
2023/06/23 05:43:20;;;;;;;71.97;64.53;;;24.30;62.90;;;;;;4981122;28;20102;-77
2023/06/23 05:45:46;;;;;;;73.32;66.00;;;24.30;62.40;;;;;;4984374;28;20401;-77
2023/06/23 05:48:15;;;;;;;75.70;68.20;;;24.50;61.90;;;;;;4972023;28;20431;-77
2023/06/23 05:50:42;;;;;;;79.45;71.72;;;24.50;61.20;;;;;;4984720;28;20037;-78
2023/06/23 05:53:13;;;;;;;72.97;65.53;;;24.50;60.80;;;;;;4983339;28;20050;-77
2023/06/23 05:55:45;;;;;;;72.25;65.05;;;24.10;63.20;;;;;;4984375;28;20034;-76
2023/06/23 05:58:13;;;;;;;80.53;72.40;;;23.60;64.70;;;;;;4976038;28;20572;-77
2023/06/23 06:00:45;;;;;;;80.07;72.13;;;22.70;67.20;;;;;;4991947;28;20022;-78
2023/06/23 06:03:14;;;;;;;83.35;75.07;;;21.80;71.50;;;;;;4975630;28;20042;-78
2023/06/23 06:05:46;;;;;;;76.85;68.95;;;21.40;72.50;;;;;;4976987;28;20552;-79
2023/06/23 06:08:12;;;;;;;80.63;72.50;;;21.40;73.10;;;;;;4979514;28;20166;-78
2023/06/23 06:10:39;;;;;;;77.63;69.88;;;21.40;72.90;;;;;;4979338;28;20078;-79
2023/06/23 06:13:05;;;;;;;79.43;71.43;;;21.30;73.10;;;;;;4986781;28;20097;-79
2023/06/23 06:15:33;;;;;;;80.85;72.60;;;21.30;73.60;;;;;;4981587;28;20117;-76
2023/06/23 06:18:02;;;;;;;77.07;69.35;;;21.20;73.70;;;;;;4976311;28;20038;-78
2023/06/23 06:20:30;;;;;;;76.18;68.25;;;21.10;74.20;;;;;;4978794;28;20126;-77
2023/06/23 06:22:57;;;;;;;75.75;68.10;;;21.10;74.10;;;;;;4979916;28;20046;-78
2023/06/23 06:25:27;;;;;;;77.22;69.47;;;21.10;74.70;;;;;;4983144;28;20343;-78
2023/06/23 06:27:53;;;;;;;76.78;68.78;;;21.20;74.80;;;;;;4970565;28;20035;-78
2023/06/23 06:30:21;;;;;;;79.72;71.57;;;21.20;74.20;;;;;;4977293;28;20117;-77
2023/06/23 06:32:49;;;;;;;76.00;68.30;;;21.30;74.20;;;;;;4975916;28;20227;-76
2023/06/23 06:35:15;;;;;;;74.95;67.22;;;21.40;74.60;;;;;;4976672;28;20042;-76
2023/06/23 06:37:47;;;;;;;76.03;68.30;;;21.20;74.60;;;;;;4974793;28;20040;-77
2023/06/23 06:40:23;;;;;;;71.28;63.80;;;21.20;74.40;;;;;;4978276;28;20029;-77
2023/06/23 06:42:49;;;;;;;75.60;67.80;;;21.30;75.70;;;;;;4969704;28;20086;-78
2023/06/23 06:45:14;;;;;;;73.93;66.35;;;21.40;74.30;;;;;;4974917;28;20026;-79
2023/06/23 06:47:43;;;;;;;73.43;65.90;;;21.50;74.20;;;;;;4976261;28;20463;-78
2023/06/23 06:50:19;;;;;;;71.28;63.78;;;21.60;73.90;;;;;;4978728;28;20313;-77
2023/06/23 06:52:46;;;;;;;67.10;60.15;;;21.80;73.70;;;;;;4981688;28;20034;-78
2023/06/23 06:55:19;;;;;;;70.32;63.17;;;21.90;73.20;;;;;;4974509;28;20066;-78
2023/06/23 06:57:46;;;;;;;66.33;59.27;;;22.00;73.00;;;;;;4978493;28;20034;-79
2023/06/23 07:00:17;;;;;;;64.28;57.40;;;22.00;72.50;;;;;;4972621;28;20015;-79
2023/06/23 07:02:43;;;;;;;60.95;54.72;;;22.10;71.00;;;;;;4968880;28;20432;-78
2023/06/23 07:05:09;;;;;;;56.97;51.03;;;22.20;71.20;;;;;;4984018;28;20066;-80
2023/06/23 07:07:35;;;;;;;51.33;46.20;;;22.20;70.30;;;;;;4979546;28;20058;-78
2023/06/23 07:10:01;;;;;;;50.25;45.03;;;22.40;69.10;;;;;;4975889;28;20010;-78
2023/06/23 07:12:27;;;;;;;55.25;49.75;;;22.50;69.20;;;;;;4981282;28;20034;-78
2023/06/23 07:14:53;;;;;;;47.70;42.83;;;22.60;69.10;;;;;;4975276;28;20515;-77
2023/06/23 07:17:18;;;;;;;47.35;42.55;;;22.70;67.70;;;;;;4981986;28;20134;-78
2023/06/23 07:19:44;;;;;;;52.20;46.90;;;22.60;68.60;;;;;;4981432;28;20034;-78
2023/06/23 07:22:10;;;;;;;48.05;43.15;;;22.80;68.20;;;;;;4975543;28;20096;-78
2023/06/23 07:24:36;;;;;;;46.45;41.40;;;23.00;68.20;;;;;;4979235;28;20030;-78
2023/06/23 07:27:02;;;;;;;40.38;36.17;;;23.10;65.80;;;;;;4981608;28;20498;-76
2023/06/23 07:29:27;;;;;;;47.33;42.42;;;23.00;65.00;;;;;;4978242;28;20463;-78
2023/06/23 07:31:53;;;;;;;44.92;40.30;;;23.00;66.30;;;;;;4976768;28;20047;-77
2023/06/23 07:34:19;;;;;;;39.00;34.97;;;23.00;67.10;;;;;;4979786;28;20022;-77
2023/06/23 07:36:45;;;;;;;32.70;29.27;;;23.00;66.60;;;;;;4972104;28;20038;-78
2023/06/23 07:39:10;;;;;;;24.58;21.92;;;23.10;66.40;;;;;;4983277;28;20049;-81
2023/06/23 07:41:37;;;;;;;40.33;36.33;;;23.20;62.50;;;;;;4982345;28;20065;-80
2023/06/23 07:44:03;;;;;;;34.50;30.88;;;23.30;64.20;;;;;;4983555;28;20026;-77
2023/06/23 07:46:29;;;;;;;29.38;26.25;;;23.40;63.90;;;;;;4980987;28;20165;-76
2023/06/23 07:48:55;;;;;;;32.45;29.15;;;23.60;62.60;;;;;;4979972;28;20092;-76
2023/06/23 07:51:21;;;;;;;35.30;31.77;;;23.60;63.80;;;;;;4978807;28;20038;-77
2023/06/23 07:53:47;;;;;;;33.13;29.70;;;23.70;62.30;;;;;;4979942;28;20507;-76
2023/06/23 07:56:13;;;;;;;25.88;23.15;;;23.80;63.30;;;;;;4976609;28;20094;-77
2023/06/23 07:58:39;;;;;;;25.27;22.60;;;24.00;61.80;;;;;;4978138;28;20840;-77
2023/06/23 08:01:06;;;;;;;24.98;22.33;;;24.10;60.60;;;;;;4977604;28;20065;-77
2023/06/23 08:03:33;;;;;;;28.27;25.25;;;24.10;60.30;;;;;;4980328;28;20018;-77
2023/06/23 08:05:59;;;;;;;27.98;25.08;;;24.40;60.50;;;;;;4973096;28;20102;-78
2023/06/23 08:08:25;;;;;;;22.50;19.83;;;24.50;59.20;;;;;;4973621;28;20471;-78
2023/06/23 08:10:50;;;;;;;20.45;16.40;;;24.60;58.30;;;;;;4976844;28;20274;-77
2023/06/23 08:13:17;;;;;;;22.50;20.10;;;24.60;59.20;;;;;;4977751;28;20053;-77
2023/06/23 08:15:43;;;;;;;24.10;18.73;;;24.60;58.90;;;;;;4979829;28;20065;-77
2023/06/23 08:18:09;;;;;;;23.25;18.77;;;24.60;57.10;;;;;;4994847;28;20099;-77
2023/06/23 08:20:34;;;;;;;24.42;21.85;;;24.80;58.80;;;;;;4983490;28;20026;-77
2023/06/23 08:23:01;;;;;;;25.27;22.63;;;25.00;58.40;;;;;;4981008;28;20042;-77
2023/06/23 08:25:27;;;;;;;25.02;22.33;;;25.00;57.60;;;;;;4980229;28;20112;-77
2023/06/23 08:27:52;;;;;;;27.58;24.67;;;25.30;55.70;;;;;;4975617;28;20038;-76
2023/06/23 08:30:26;;;;;;;30.00;26.85;;;25.30;56.40;;;;;;4981444;28;20438;-79
2023/06/23 08:32:53;;;;;;;27.45;24.42;;;25.20;56.20;;;;;;4977821;28;21216;-79
2023/06/23 08:35:19;;;;;;;25.58;22.90;;;25.30;57.00;;;;;;4979948;28;20643;-78
2023/06/23 08:37:44;;;;;;;26.38;21.60;;;25.30;56.20;;;;;;4980587;28;20031;-79
2023/06/23 08:40:11;;;;;;;23.83;21.33;;;25.30;55.10;;;;;;4982795;28;20030;-78
2023/06/23 08:42:37;;;;;;;21.95;19.65;;;25.40;54.30;;;;;;4984608;28;20046;-78
2023/06/23 08:45:04;;;;;;;17.60;14.40;;;25.10;54.90;;;;;;4978184;28;20483;-77
2023/06/23 08:47:31;;;;;;;25.60;19.48;;;25.00;54.80;;;;;;4984688;28;20582;-76
2023/06/23 08:49:57;;;;;;;25.48;21.42;;;25.30;55.40;;;;;;4980762;28;20648;-77
2023/06/23 08:52:24;;;;;;;24.13;21.40;;;25.60;54.70;;;;;;4980741;28;20038;-77
2023/06/23 08:54:51;;;;;;;22.38;19.98;;;25.80;53.80;;;;;;4983068;28;20874;-77
2023/06/23 08:57:18;;;;;;;19.80;17.70;;;26.00;53.80;;;;;;4977742;28;20038;-76
2023/06/23 08:59:44;;;;;;;20.92;17.95;;;25.60;54.60;;;;;;4980497;28;20019;-77
2023/06/23 09:02:09;;;;;;;20.83;17.90;;;26.00;53.60;;;;;;4977887;28;20033;-78
2023/06/23 09:04:35;;;;;;;21.15;18.65;;;26.10;53.90;;;;;;4981878;28;20645;-79
2023/06/23 09:07:01;;;;;;;23.73;18.38;;;26.00;53.40;;;;;;4982020;28;20030;-79
2023/06/23 09:09:27;;;;;;;19.90;16.48;;;26.10;53.90;;;;;;4983541;28;20464;-79
2023/06/23 09:11:53;;;;;;;18.88;16.10;;;26.30;53.00;;;;;;4981273;28;20073;-79
2023/06/23 09:14:18;;;;;;;24.35;16.15;;;26.30;52.50;;;;;;4982006;28;20050;-78
2023/06/23 09:16:45;;;;;;;22.55;17.70;;;26.50;52.20;;;;;;4981423;28;20042;-78
2023/06/23 09:19:12;;;;;;;19.52;16.10;;;26.50;52.00;;;;;;4985507;28;20475;-78
2023/06/23 09:21:41;;;;;;;19.83;15.95;;;26.50;51.80;;;;;;4977646;28;20034;-78
2023/06/23 09:24:07;;;;;;;18.83;15.13;;;26.40;50.90;;;;;;4982151;28;20045;-78
2023/06/23 09:26:48;;;;;;;15.23;12.05;;;26.10;51.10;;;;;;4985937;28;20088;-78
2023/06/23 09:29:22;;;;;;;18.77;13.43;;;26.00;52.10;;;;;;4983086;28;20031;-78
2023/06/23 09:31:50;;;;;;;14.25;10.13;;;25.90;50.60;;;;;;4981516;28;20639;-76
2023/06/23 09:34:30;;;;;;;15.68;11.18;;;26.20;51.70;;;;;;4978768;28;20391;-77
2023/06/23 09:37:13;;;;;;;19.25;13.02;;;26.40;49.70;;;;;;4975916;28;20050;-77
2023/06/23 09:39:41;;;;;;;17.10;13.65;;;26.60;49.60;;;;;;4980339;28;20034;-77
2023/06/23 09:42:11;;;;;;;17.00;11.70;;;26.50;48.80;;;;;;4979818;28;20119;-79
2023/06/23 09:44:45;;;;;;;12.70;9.35;;;26.40;50.80;;;;;;4972959;28;20455;-79
2023/06/23 09:47:13;;;;;;;15.50;10.02;;;26.60;50.20;;;;;;4978090;28;20065;-78
2023/06/23 09:49:42;;;;;;;13.90;10.02;;;26.90;49.30;;;;;;4994444;28;20030;-79
2023/06/23 09:52:11;;;;;;;14.75;11.25;;;27.10;49.80;;;;;;4981491;28;20031;-77
2023/06/23 09:54:39;;;;;;;16.75;12.13;;;27.00;50.10;;;;;;4981206;28;20057;-76
2023/06/23 09:57:16;;;;;;;16.63;11.10;;;27.20;49.70;;;;;;4983085;28;20117;-75
2023/06/23 09:59:44;;;;;;;15.82;12.50;;;27.20;49.80;;;;;;4984944;28;20113;-78
2023/06/23 10:02:22;;;;;;;15.77;12.75;;;27.20;49.10;;;;;;4977295;28;20074;-80
2023/06/23 10:05:05;;;;;;;16.20;13.20;;;27.30;48.80;;;;;;4983242;28;20125;-80
2023/06/23 10:07:31;;;;;;;17.63;12.75;;;27.30;49.50;;;;;;4974396;28;20040;-80
2023/06/23 10:10:04;;;;;;;15.98;13.32;;;27.30;48.70;;;;;;4975756;28;20107;-79
2023/06/23 10:12:32;;;;;;;17.98;14.48;;;27.40;48.60;;;;;;4985877;28;20066;-81
2023/06/23 10:14:58;;;;;;;18.95;16.27;;;27.30;49.40;;;;;;4983383;28;20042;-78
2023/06/23 10:17:24;;;;;;;17.92;15.73;;;27.50;49.20;;;;;;4976518;28;20602;-78
2023/06/23 10:19:52;;;;;;;17.33;14.25;;;27.80;49.10;;;;;;4980053;28;20030;-79
2023/06/23 10:22:20;;;;;;;16.42;14.20;;;28.00;49.10;;;;;;4981431;28;20737;-79
2023/06/23 10:24:50;;;;;;;16.63;12.55;;;28.10;46.80;;;;;;4984191;28;20111;-79
2023/06/23 10:27:23;;;;;;;18.95;13.95;;;27.80;48.20;;;;;;4979583;28;20035;-78
2023/06/23 10:29:52;;;;;;;13.52;11.15;;;27.70;48.70;;;;;;4973208;28;20026;-79
2023/06/23 10:32:24;;;;;;;16.40;13.40;;;27.70;47.90;;;;;;4983500;28;20518;-78
2023/06/23 10:34:51;;;;;;;14.25;11.95;;;28.10;46.20;;;;;;4983745;28;20088;-78
2023/06/23 10:37:21;;;;;;;14.43;11.75;;;28.20;45.90;;;;;;4978922;28;20023;-80
2023/06/23 10:40:00;;;;;;;16.05;11.55;;;28.30;46.70;;;;;;4982286;28;20026;-78
2023/06/23 10:42:28;;;;;;;15.77;11.90;;;28.10;47.30;;;;;;4977840;28;20080;-78
2023/06/23 10:44:54;;;;;;;15.15;11.55;;;28.20;47.50;;;;;;4982467;28;20092;-78
2023/06/23 10:47:21;;;;;;;15.57;11.77;;;28.50;46.80;;;;;;4977523;28;20042;-78
2023/06/23 10:49:48;;;;;;;12.23;9.25;;;28.30;45.10;;;;;;4979413;28;20069;-78
2023/06/23 10:52:14;;;;;;;13.38;10.52;;;28.50;46.60;;;;;;4972946;28;20039;-77
2023/06/23 10:54:40;;;;;;;13.35;8.55;;;28.90;45.40;;;;;;4974866;28;20044;-76
2023/06/23 10:57:10;;;;;;;15.77;9.02;;;28.50;45.80;;;;;;4980468;28;20039;-77
2023/06/23 10:59:44;;;;;;;12.15;9.05;;;28.10;47.30;;;;;;4983310;28;20057;-76
2023/06/23 11:02:17;;;;;;;10.95;8.75;;;28.50;46.10;;;;;;4980206;28;20528;-76
2023/06/23 11:04:57;;;;;;;13.18;8.52;;;28.80;43.90;;;;;;4982068;28;20038;-77
2023/06/23 11:07:24;;;;;;;9.85;5.80;;;29.00;42.80;;;;;;4968472;28;20039;-78
2023/06/23 11:10:03;;;;;;;8.82;6.18;;;29.00;44.40;;;;;;4974931;28;20044;-77
2023/06/23 11:12:38;;;;;;;8.63;5.97;;;28.90;43.60;;;;;;4977995;28;20069;-78
2023/06/23 11:15:16;;;;;;;9.02;6.28;;;28.70;43.60;;;;;;4980609;28;20130;-79
2023/06/23 11:17:48;;;;;;;10.27;7.18;;;28.50;44.40;;;;;;4976626;28;20057;-79
2023/06/23 11:20:23;;;;;;;10.88;7.40;;;28.20;46.00;;;;;;4975893;28;20822;-77
2023/06/23 11:23:05;;;;;;;12.93;7.90;;;28.00;45.30;;;;;;4972926;28;20093;-78
2023/06/23 11:25:41;;;;;;;11.82;8.60;;;28.00;46.40;;;;;;4974898;28;20042;-76
2023/06/23 11:28:25;;;;;;;11.68;7.85;;;27.70;46.20;;;;;;4975269;28;20026;-77
2023/06/23 11:31:03;;;;;;;11.70;8.55;;;27.80;47.90;;;;;;4980360;28;20038;-77
2023/06/23 11:33:37;;;;;;;10.43;7.25;;;27.90;44.90;;;;;;4977416;28;20092;-77
2023/06/23 11:36:08;;;;;;;11.02;7.20;;;28.10;45.60;;;;;;4975401;28;20513;-79
2023/06/23 11:38:36;;;;;;;12.23;8.80;;;28.60;46.10;;;;;;4974309;28;20072;-80
2023/06/23 11:41:02;;;;;;;13.68;9.73;;;28.50;45.20;;;;;;4981640;28;20022;-78
2023/06/23 11:43:32;;;;;;;11.60;7.75;;;28.20;46.50;;;;;;4980242;28;20021;-77
2023/06/23 11:46:06;;;;;;;11.15;7.68;;;28.10;45.50;;;;;;4976992;28;20479;-78
2023/06/23 11:48:32;;;;;;;12.60;8.07;;;28.30;46.70;;;;;;4974163;28;20023;-77
2023/06/23 11:50:59;;;;;;;11.23;6.47;;;28.60;44.40;;;;;;4968049;28;20019;-77
2023/06/23 11:53:25;;;;;;;9.25;6.65;;;28.70;45.30;;;;;;4977658;28;20041;-77
2023/06/23 11:55:52;;;;;;;9.00;5.20;;;29.20;43.90;;;;;;4973870;28;20129;-77
2023/06/23 11:58:18;;;;;;;7.70;5.10;;;29.50;42.50;;;;;;4975677;28;20023;-77
2023/06/23 12:00:44;;;;;;;11.50;5.45;;;29.60;43.50;;;;;;4974570;28;20072;-77
2023/06/23 12:03:13;;;;;;;8.45;5.45;;;30.00;42.70;;;;;;4979075;28;20097;-77
2023/06/23 12:05:41;;;;;;;8.48;5.35;;;30.10;40.50;;;;;;4974883;28;20323;-77
2023/06/23 12:08:07;;;;;;;8.68;5.38;;;30.30;40.60;;;;;;4977326;28;20049;-77
2023/06/23 12:10:42;;;;;;;8.07;5.38;;;30.40;40.50;;;;;;4976671;28;20027;-76
2023/06/23 12:13:11;;;;;;;7.03;4.75;;;30.20;39.60;;;;;;4976732;28;20371;-77
2023/06/23 12:15:42;;;;;;;7.90;4.93;;;30.00;40.50;;;;;;4981570;28;20137;-78
2023/06/23 12:18:08;;;;;;;10.65;5.55;;;29.90;41.00;;;;;;4979324;28;20135;-77
2023/06/23 12:20:47;;;;;;;9.18;5.15;;;30.00;41.30;;;;;;4972914;28;20057;-77
2023/06/23 12:23:13;;;;;;;9.02;5.40;;;30.10;41.30;;;;;;4978527;28;20041;-77
2023/06/23 12:25:44;;;;;;;8.05;4.57;;;30.20;40.00;;;;;;4973853;28;20611;-77
2023/06/23 12:28:18;;;;;;;8.45;4.50;;;30.60;40.70;;;;;;4973197;28;20478;-78
2023/06/23 12:30:48;;;;;;;8.52;5.18;;;30.70;39.80;;;;;;4977166;28;20547;-78
2023/06/23 12:33:19;;;;;;;9.18;5.70;;;30.80;39.80;;;;;;4976952;28;20697;-77
2023/06/23 12:36:04;;;;;;;10.23;5.63;;;31.10;40.00;;;;;;4984422;28;20041;-77
2023/06/23 12:38:37;;;;;;;9.73;6.75;;;31.10;40.80;;;;;;4990004;28;20030;-77